Time;durP1;ratioP1;P1;durP2;ratioP2;P2;SDS_P1;SDS_P2;PMS_P1;PMS_P2;Temp;Humidity;BMP_temperature;BMP_pressure;BME280_temperature;BME280_humidity;BME280_pressure;Samples;Min_cycle;Max_cycle;Signal;HPM_P1;HPM_P2
2023/08/10 00:01:22;;;;;;;2.13;1.60;;;17.20;99.90;;;;;;4960740;28;20214;-29
2023/08/10 00:03:48;;;;;;;1.40;1.25;;;17.20;99.90;;;;;;4960454;28;20215;-29
2023/08/10 00:06:14;;;;;;;2.08;1.65;;;17.20;99.90;;;;;;4961549;28;20180;-29
2023/08/10 00:08:40;;;;;;;1.90;1.70;;;17.20;99.90;;;;;;4963920;28;20204;-29
2023/08/10 00:11:06;;;;;;;2.08;1.48;;;17.00;99.90;;;;;;4991238;28;20210;-30
2023/08/10 00:13:32;;;;;;;1.65;1.55;;;16.90;99.90;;;;;;4960090;28;20211;-29
2023/08/10 00:15:58;;;;;;;2.03;1.50;;;16.90;99.90;;;;;;4960208;28;20179;-29
2023/08/10 00:18:24;;;;;;;1.83;1.73;;;16.80;99.90;;;;;;4991795;28;20212;-30
2023/08/10 00:20:50;;;;;;;2.05;1.85;;;16.80;99.90;;;;;;4992224;28;20212;-29
2023/08/10 00:23:15;;;;;;;2.58;1.50;;;16.80;99.90;;;;;;4992271;28;20324;-29
2023/08/10 00:25:41;;;;;;;2.72;1.60;;;16.60;99.90;;;;;;4992362;28;20183;-29
2023/08/10 00:28:07;;;;;;;1.70;1.45;;;16.60;99.90;;;;;;4992827;28;20223;-29
2023/08/10 00:30:34;;;;;;;1.90;1.80;;;16.40;99.90;;;;;;4991581;28;20190;-29
2023/08/10 00:32:59;;;;;;;1.73;1.63;;;16.50;99.90;;;;;;4992114;28;20233;-29
2023/08/10 00:35:25;;;;;;;3.93;1.80;;;16.50;99.90;;;;;;4990615;28;20280;-29
2023/08/10 00:37:51;;;;;;;2.23;1.60;;;16.50;99.90;;;;;;4959533;28;20240;-29
2023/08/10 00:40:17;;;;;;;2.20;1.60;;;16.50;99.90;;;;;;4956230;28;20243;-29
2023/08/10 00:42:44;;;;;;;1.92;1.70;;;16.50;99.90;;;;;;4972778;28;20176;-29
2023/08/10 00:45:10;;;;;;;2.20;1.53;;;16.60;99.90;;;;;;4972699;28;20654;-29
2023/08/10 00:47:37;;;;;;;3.97;2.00;;;16.50;99.90;;;;;;4972539;28;20211;-30
2023/08/10 00:50:03;;;;;;;1.67;1.57;;;16.40;99.90;;;;;;4956533;28;20215;-29
2023/08/10 00:52:31;;;;;;;1.60;1.50;;;16.40;99.90;;;;;;4956265;28;20188;-29
2023/08/10 00:54:56;;;;;;;2.53;1.80;;;16.30;99.90;;;;;;4972258;28;20212;-30
2023/08/10 00:57:22;;;;;;;1.70;1.60;;;16.20;99.90;;;;;;4971774;28;20240;-29
2023/08/10 00:59:49;;;;;;;2.00;1.80;;;16.10;99.90;;;;;;4940601;28;20217;-29
2023/08/10 01:02:15;;;;;;;2.23;1.93;;;16.10;99.90;;;;;;4971538;28;20187;-29
2023/08/10 01:04:42;;;;;;;2.43;1.63;;;16.00;99.90;;;;;;4991268;28;20176;-29
2023/08/10 01:07:31;;;;;;;1.93;1.60;;;15.90;99.90;;;;;;4991738;28;20196;-29
2023/08/10 01:10:24;;;;;;;2.53;1.73;;;15.90;99.90;;;;;;4972470;28;20258;-29
2023/08/10 01:12:54;;;;;;;3.27;1.70;;;15.80;99.90;;;;;;4923231;28;20274;-29
2023/08/10 01:15:31;;;;;;;1.67;1.57;;;15.70;99.90;;;;;;4962533;28;20177;-28
2023/08/10 01:17:59;;;;;;;2.53;1.73;;;15.60;99.90;;;;;;4990645;28;20200;-29
2023/08/10 01:20:28;;;;;;;1.70;1.60;;;15.60;99.90;;;;;;4993286;28;20207;-30
2023/08/10 01:23:26;;;;;;;1.90;1.80;;;15.60;99.90;;;;;;4978614;28;20226;-29
2023/08/10 01:25:53;;;;;;;2.43;1.80;;;15.50;99.90;;;;;;4952712;28;20331;-30
2023/08/10 01:28:19;;;;;;;2.37;2.03;;;15.40;99.90;;;;;;4966386;28;20235;-29
2023/08/10 01:30:45;;;;;;;2.37;1.70;;;15.30;99.90;;;;;;4975266;28;20184;-28
2023/08/10 01:33:13;;;;;;;1.93;1.63;;;15.20;99.90;;;;;;4967490;28;20190;-29
2023/08/10 01:35:39;;;;;;;3.03;1.97;;;15.20;99.90;;;;;;4982913;28;20184;-29
2023/08/10 01:38:05;;;;;;;1.90;1.70;;;15.20;99.90;;;;;;4987083;28;20218;-30
2023/08/10 01:40:32;;;;;;;2.03;1.80;;;15.10;99.90;;;;;;4956024;28;20208;-28
2023/08/10 01:43:00;;;;;;;2.73;1.80;;;15.10;99.90;;;;;;4975441;28;20179;-29
2023/08/10 01:45:25;;;;;;;2.13;1.80;;;15.00;99.90;;;;;;4977934;28;20176;-28
2023/08/10 01:48:03;;;;;;;1.70;1.60;;;15.00;99.90;;;;;;4994239;28;20207;-29
2023/08/10 01:50:33;;;;;;;3.50;1.67;;;14.90;99.90;;;;;;4971288;28;20184;-29
2023/08/10 01:53:22;;;;;;;2.00;1.80;;;14.70;99.90;;;;;;4990726;28;20195;-29
2023/08/10 01:55:48;;;;;;;3.07;2.07;;;14.70;99.90;;;;;;4969210;28;20211;-28
2023/08/10 01:58:15;;;;;;;4.53;1.80;;;14.70;99.90;;;;;;4972911;28;20208;-29
2023/08/10 02:00:41;;;;;;;2.20;2.00;;;14.70;99.90;;;;;;4966148;28;20211;-29
2023/08/10 02:03:07;;;;;;;1.97;1.80;;;14.70;99.90;;;;;;4959395;28;20255;-29
2023/08/10 02:05:33;;;;;;;1.80;1.70;;;14.70;99.90;;;;;;4956668;28;20184;-29
2023/08/10 02:07:59;;;;;;;4.47;1.87;;;14.70;99.90;;;;;;4974018;28;20204;-29
2023/08/10 02:10:25;;;;;;;1.77;1.60;;;14.70;99.90;;;;;;4958215;28;20211;-29
2023/08/10 02:12:51;;;;;;;2.13;1.93;;;14.70;99.90;;;;;;4958006;28;20262;-29
2023/08/10 02:15:18;;;;;;;2.53;2.10;;;14.60;99.90;;;;;;4958005;28;20188;-29
2023/08/10 02:17:44;;;;;;;2.93;2.10;;;14.50;99.90;;;;;;4963324;28;20203;-29
2023/08/10 02:20:13;;;;;;;2.20;2.00;;;14.60;99.90;;;;;;4959105;28;20219;-29
2023/08/10 02:22:42;;;;;;;2.17;1.90;;;14.60;99.90;;;;;;4958120;28;20180;-29
2023/08/10 02:25:09;;;;;;;2.30;2.00;;;14.60;99.90;;;;;;4957223;28;20202;-29
2023/08/10 02:27:35;;;;;;;2.37;2.10;;;14.60;99.90;;;;;;4960991;28;20204;-29
2023/08/10 02:30:02;;;;;;;3.30;2.20;;;14.60;99.90;;;;;;4968512;28;20202;-29
2023/08/10 02:32:28;;;;;;;2.17;1.97;;;14.60;99.90;;;;;;4961982;28;20670;-29
2023/08/10 02:34:53;;;;;;;4.53;2.00;;;14.50;99.90;;;;;;4969495;28;20188;-29
2023/08/10 02:37:19;;;;;;;2.40;2.20;;;14.50;99.90;;;;;;4957267;28;20202;-29
2023/08/10 02:39:45;;;;;;;2.47;1.90;;;14.40;99.90;;;;;;4976616;28;20254;-29
2023/08/10 02:42:11;;;;;;;2.63;2.00;;;14.40;99.90;;;;;;4976593;28;20219;-29
2023/08/10 02:44:37;;;;;;;1.90;1.80;;;14.30;99.90;;;;;;4976793;28;20278;-29
2023/08/10 02:47:03;;;;;;;2.30;2.00;;;14.30;99.90;;;;;;4972629;28;20282;-29
2023/08/10 02:49:29;;;;;;;1.83;1.73;;;14.30;99.90;;;;;;4973375;28;20255;-29
2023/08/10 02:51:55;;;;;;;2.20;2.00;;;14.20;99.90;;;;;;4974281;28;20248;-29
2023/08/10 02:54:22;;;;;;;2.33;2.13;;;14.20;99.90;;;;;;4966153;28;20184;-29
2023/08/10 02:56:48;;;;;;;2.37;2.17;;;14.20;99.90;;;;;;4961467;28;20215;-29
2023/08/10 02:59:13;;;;;;;3.20;2.30;;;14.20;99.90;;;;;;4973926;28;20246;-29
2023/08/10 03:01:39;;;;;;;3.13;2.17;;;14.10;99.90;;;;;;4973312;28;20195;-29
2023/08/10 03:04:05;;;;;;;2.57;1.90;;;14.00;99.90;;;;;;4957490;28;20242;-28
2023/08/10 03:06:32;;;;;;;2.23;2.00;;;14.00;99.90;;;;;;4972551;28;20184;-29
2023/08/10 03:08:58;;;;;;;1.93;1.70;;;13.90;99.90;;;;;;4989953;28;20211;-29
2023/08/10 03:11:24;;;;;;;2.10;1.90;;;13.80;99.90;;;;;;5022341;28;20267;-29
2023/08/10 03:13:50;;;;;;;2.10;1.90;;;13.80;99.90;;;;;;4973795;28;20749;-29
2023/08/10 03:16:17;;;;;;;2.40;1.97;;;13.70;99.90;;;;;;4973512;28;20238;-29
2023/08/10 03:18:43;;;;;;;1.80;1.70;;;13.70;99.90;;;;;;4972952;28;20204;-29
2023/08/10 03:21:10;;;;;;;3.27;1.97;;;13.70;99.90;;;;;;4973126;28;20184;-29
2023/08/10 03:23:36;;;;;;;2.40;2.20;;;13.60;99.90;;;;;;4975256;28;20180;-29
2023/08/10 03:26:02;;;;;;;2.43;2.23;;;13.60;99.90;;;;;;4973538;28;20184;-29
2023/08/10 03:28:28;;;;;;;3.30;2.10;;;13.60;99.90;;;;;;4976669;28;20195;-29
2023/08/10 03:30:54;;;;;;;1.80;1.70;;;13.60;99.90;;;;;;4976327;28;20238;-29
2023/08/10 03:33:20;;;;;;;2.30;2.10;;;13.60;99.90;;;;;;4969755;28;20180;-29
2023/08/10 03:35:47;;;;;;;3.23;2.30;;;13.60;99.90;;;;;;4962872;28;20191;-28
2023/08/10 03:38:13;;;;;;;2.20;2.00;;;13.50;99.90;;;;;;4989595;28;20215;-29
2023/08/10 03:40:39;;;;;;;2.13;2.00;;;13.50;99.90;;;;;;4976255;28;20215;-29
2023/08/10 03:43:05;;;;;;;2.27;2.07;;;13.50;99.90;;;;;;4966768;28;20185;-29
2023/08/10 03:45:31;;;;;;;2.73;2.07;;;13.50;99.90;;;;;;4976116;28;20227;-29
2023/08/10 03:47:57;;;;;;;1.90;1.80;;;13.50;99.90;;;;;;5021918;28;20243;-29
2023/08/10 03:50:22;;;;;;;2.23;2.03;;;13.40;99.90;;;;;;4978956;28;20196;-29
2023/08/10 03:52:48;;;;;;;2.30;2.10;;;13.40;99.90;;;;;;4976163;28;20279;-29
2023/08/10 03:55:14;;;;;;;2.30;2.10;;;13.40;99.90;;;;;;4976284;28;20184;-29
2023/08/10 03:57:41;;;;;;;2.23;2.03;;;13.30;99.90;;;;;;4992308;28;20211;-29
2023/08/10 04:00:10;;;;;;;3.50;2.07;;;13.30;99.90;;;;;;4976747;28;20342;-29
2023/08/10 04:02:46;;;;;;;2.17;2.00;;;13.30;99.90;;;;;;4968143;28;20233;-29
2023/08/10 04:05:17;;;;;;;2.07;1.90;;;13.30;99.90;;;;;;4962532;28;20202;-29
2023/08/10 04:07:44;;;;;;;2.50;1.80;;;13.20;99.90;;;;;;4979788;28;20195;-29
2023/08/10 04:10:10;;;;;;;2.27;2.07;;;13.20;99.90;;;;;;4979540;28;20187;-29
2023/08/10 04:12:37;;;;;;;2.10;1.97;;;13.20;99.90;;;;;;4980112;28;20191;-28
2023/08/10 04:15:08;;;;;;;2.20;1.87;;;13.20;99.90;;;;;;4980092;28;20180;-28
2023/08/10 04:17:35;;;;;;;2.20;2.00;;;13.10;99.90;;;;;;4972291;28;20235;-29
2023/08/10 04:20:01;;;;;;;2.10;1.90;;;13.10;99.90;;;;;;4988454;28;20210;-29
2023/08/10 04:22:27;;;;;;;2.37;2.17;;;13.20;99.90;;;;;;4991360;28;20195;-29
2023/08/10 04:24:52;;;;;;;2.40;2.20;;;13.30;99.90;;;;;;4959379;28;20183;-29
2023/08/10 04:27:18;;;;;;;3.03;2.40;;;13.20;99.90;;;;;;4974864;28;20322;-28
2023/08/10 04:29:45;;;;;;;3.37;2.70;;;13.20;99.90;;;;;;4978737;28;20187;-29
2023/08/10 04:32:12;;;;;;;3.17;2.60;;;13.30;99.90;;;;;;4971303;28;20203;-28
2023/08/10 04:34:42;;;;;;;3.03;2.30;;;13.30;99.90;;;;;;4974302;28;20199;-29
2023/08/10 04:37:10;;;;;;;4.17;2.30;;;13.20;99.90;;;;;;4960394;28;20311;-29
2023/08/10 04:39:41;;;;;;;2.40;2.20;;;13.30;99.90;;;;;;4968390;28;20243;-29
2023/08/10 04:42:18;;;;;;;2.30;2.10;;;13.30;99.90;;;;;;4992041;28;20211;-29
2023/08/10 04:44:47;;;;;;;2.83;2.40;;;13.30;99.90;;;;;;4979471;28;20184;-29
2023/08/10 04:47:18;;;;;;;4.70;2.60;;;13.30;99.90;;;;;;4939593;28;20637;-29
2023/08/10 04:49:49;;;;;;;4.63;2.90;;;13.40;99.90;;;;;;4990792;28;20254;-29
2023/08/10 04:52:17;;;;;;;3.13;2.70;;;13.40;99.90;;;;;;4963918;28;20346;-29
2023/08/10 04:54:44;;;;;;;2.80;2.60;;;13.40;99.90;;;;;;4965226;28;20203;-28
2023/08/10 04:57:10;;;;;;;2.90;2.63;;;13.30;99.90;;;;;;4988446;28;20200;-29
2023/08/10 04:59:36;;;;;;;3.10;2.80;;;13.30;99.90;;;;;;4977770;28;20211;-29
2023/08/10 05:02:04;;;;;;;2.80;2.60;;;13.30;99.90;;;;;;4970931;28;20196;-29
2023/08/10 05:04:30;;;;;;;5.07;2.83;;;13.30;99.90;;;;;;4952342;28;20184;-29
2023/08/10 05:06:56;;;;;;;2.67;2.47;;;13.30;99.90;;;;;;4969664;28;20179;-29
2023/08/10 05:09:23;;;;;;;5.60;2.80;;;13.40;99.90;;;;;;4991133;28;20199;-29
2023/08/10 05:11:49;;;;;;;2.40;2.20;;;13.40;99.90;;;;;;4992171;28;20187;-28
2023/08/10 05:14:15;;;;;;;3.00;2.80;;;13.40;99.90;;;;;;4993125;28;20203;-29
2023/08/10 05:16:41;;;;;;;3.03;2.73;;;13.50;99.90;;;;;;4976757;28;20760;-29
2023/08/10 05:19:07;;;;;;;5.57;2.90;;;13.60;99.90;;;;;;4976090;28;20301;-29
2023/08/10 05:21:34;;;;;;;2.97;2.63;;;13.60;99.90;;;;;;4975381;28;20180;-29
2023/08/10 05:24:01;;;;;;;4.33;2.60;;;13.80;99.90;;;;;;4992365;28;20181;-29
2023/08/10 05:26:27;;;;;;;4.53;2.70;;;13.80;99.90;;;;;;4971852;28;20179;-28
2023/08/10 05:28:53;;;;;;;3.77;2.50;;;13.90;99.90;;;;;;4975415;28;20226;-29
2023/08/10 05:31:21;;;;;;;4.23;2.83;;;14.00;99.90;;;;;;4964386;28;20180;-29
2023/08/10 05:33:47;;;;;;;20.20;3.13;;;14.10;99.90;;;;;;4977062;28;20187;-29
2023/08/10 05:36:16;;;;;;;3.50;2.77;;;14.20;99.90;;;;;;4970176;28;20180;-29
2023/08/10 05:38:43;;;;;;;3.37;3.07;;;14.30;99.90;;;;;;4976019;28;20238;-29
2023/08/10 05:41:09;;;;;;;3.87;2.80;;;14.40;99.90;;;;;;4966506;28;20669;-28
2023/08/10 05:43:35;;;;;;;3.30;3.00;;;14.40;99.90;;;;;;4969829;28;20175;-28
2023/08/10 05:46:01;;;;;;;3.03;2.73;;;14.50;99.90;;;;;;4977485;28;20186;-29
2023/08/10 05:48:27;;;;;;;3.30;2.37;;;14.60;99.90;;;;;;4964804;28;20196;-29
2023/08/10 05:50:54;;;;;;;3.20;2.90;;;14.80;99.90;;;;;;4977647;28;20246;-28
2023/08/10 05:53:20;;;;;;;4.27;2.90;;;14.90;99.90;;;;;;4993381;28;20187;-29
2023/08/10 05:55:46;;;;;;;2.90;2.57;;;15.00;99.90;;;;;;4977223;28;20191;-28
2023/08/10 05:58:12;;;;;;;3.43;2.87;;;15.00;99.90;;;;;;4993658;28;20200;-29
2023/08/10 06:00:38;;;;;;;3.67;2.63;;;15.10;99.90;;;;;;4973932;28;20218;-28
2023/08/10 06:03:05;;;;;;;2.90;2.63;;;15.20;99.90;;;;;;4993197;28;20234;-29
2023/08/10 06:05:31;;;;;;;3.33;3.00;;;15.30;99.90;;;;;;4981915;28;20184;-29
2023/08/10 06:07:58;;;;;;;3.10;2.80;;;15.40;99.90;;;;;;4974230;28;20191;-28
2023/08/10 06:10:25;;;;;;;3.20;2.90;;;15.50;99.90;;;;;;4977484;28;20210;-28
2023/08/10 06:12:52;;;;;;;3.23;2.93;;;15.60;99.90;;;;;;4977525;28;20190;-29
2023/08/10 06:15:18;;;;;;;4.03;3.07;;;15.70;99.90;;;;;;4993611;28;20250;-29
2023/08/10 06:17:44;;;;;;;3.07;2.77;;;15.80;99.90;;;;;;4976922;28;20235;-29
2023/08/10 06:20:16;;;;;;;3.80;2.80;;;15.90;99.90;;;;;;4970257;28;20250;-28
2023/08/10 06:22:44;;;;;;;4.37;2.93;;;16.00;99.90;;;;;;4965056;28;20183;-30
2023/08/10 06:25:12;;;;;;;4.70;3.83;;;16.10;99.90;;;;;;4967153;28;20180;-28
2023/08/10 06:27:38;;;;;;;4.87;3.40;;;16.10;99.90;;;;;;4981968;28;20306;-28
2023/08/10 06:30:05;;;;;;;3.23;2.93;;;16.10;99.90;;;;;;4987581;28;20192;-29
2023/08/10 06:32:34;;;;;;;3.47;2.67;;;16.20;99.90;;;;;;4986151;28;20180;-29
2023/08/10 06:35:00;;;;;;;3.50;3.20;;;16.20;99.90;;;;;;4967462;28;20188;-28
2023/08/10 06:37:26;;;;;;;5.07;3.60;;;16.30;99.90;;;;;;4958757;28;20203;-30
2023/08/10 06:39:54;;;;;;;4.90;3.60;;;16.30;99.90;;;;;;4963190;28;20219;-30
2023/08/10 06:42:22;;;;;;;4.17;3.67;;;16.30;99.90;;;;;;4963492;28;20215;-29
2023/08/10 06:44:56;;;;;;;4.43;3.10;;;16.30;99.90;;;;;;4965078;28;20187;-29
2023/08/10 06:47:22;;;;;;;4.37;3.13;;;16.40;99.90;;;;;;4969467;28;20203;-30
2023/08/10 06:49:48;;;;;;;3.50;3.20;;;16.50;99.90;;;;;;4990129;28;20300;-29
2023/08/10 06:52:14;;;;;;;4.20;3.17;;;16.50;99.90;;;;;;5022937;28;20208;-28
2023/08/10 06:54:40;;;;;;;4.13;3.00;;;16.60;99.90;;;;;;4989579;28;20191;-28
2023/08/10 06:57:06;;;;;;;4.33;3.60;;;16.70;99.90;;;;;;4970404;28;20253;-28
2023/08/10 06:59:32;;;;;;;3.50;3.20;;;16.80;99.90;;;;;;4989739;28;20246;-28
2023/08/10 07:01:58;;;;;;;5.23;3.80;;;16.90;99.90;;;;;;4962734;28;20183;-29
2023/08/10 07:04:24;;;;;;;5.07;3.33;;;17.00;99.90;;;;;;4963059;28;20179;-29
2023/08/10 07:06:51;;;;;;;4.27;3.07;;;17.00;99.90;;;;;;4964212;28;20188;-29
2023/08/10 07:09:18;;;;;;;3.90;3.43;;;17.10;99.90;;;;;;4987541;28;20191;-29
2023/08/10 07:11:44;;;;;;;3.72;3.40;;;17.20;99.90;;;;;;4965060;28;20188;-29
2023/08/10 07:14:10;;;;;;;3.90;3.50;;;17.30;99.90;;;;;;4964125;28;20180;-30
2023/08/10 07:16:36;;;;;;;4.35;3.95;;;17.40;99.90;;;;;;4963490;28;20198;-30
2023/08/10 07:19:02;;;;;;;5.47;4.03;;;17.50;99.90;;;;;;4971110;28;20211;-31
2023/08/10 07:21:30;;;;;;;5.40;4.47;;;17.50;99.90;;;;;;4969524;28;20195;-29
2023/08/10 07:23:57;;;;;;;7.03;4.10;;;17.50;99.90;;;;;;4968627;28;20187;-31
2023/08/10 07:26:23;;;;;;;4.20;3.75;;;17.50;99.90;;;;;;4971741;28;20212;-31
2023/08/10 07:28:49;;;;;;;5.90;3.92;;;17.50;99.90;;;;;;4964682;28;20196;-30
2023/08/10 07:31:17;;;;;;;4.40;4.00;;;17.60;99.90;;;;;;4994139;28;20187;-29
2023/08/10 07:33:43;;;;;;;4.75;4.28;;;17.60;99.90;;;;;;4989143;28;20261;-29
2023/08/10 07:36:10;;;;;;;5.15;4.40;;;17.60;99.90;;;;;;4959330;28;20192;-30
2023/08/10 07:38:36;;;;;;;5.55;4.35;;;17.70;99.90;;;;;;4951539;28;20228;-30
2023/08/10 07:41:03;;;;;;;5.28;4.22;;;17.90;99.90;;;;;;4950185;28;20220;-29
2023/08/10 07:43:30;;;;;;;5.10;4.30;;;18.00;99.90;;;;;;4961471;28;20181;-29
2023/08/10 07:45:55;;;;;;;6.38;3.88;;;18.20;99.90;;;;;;4959339;28;20183;-30
2023/08/10 07:48:21;;;;;;;4.68;3.40;;;18.30;99.90;;;;;;4984578;28;20220;-29
2023/08/10 07:50:48;;;;;;;4.78;4.38;;;18.50;99.90;;;;;;4957789;28;20187;-30
2023/08/10 07:53:14;;;;;;;4.53;4.10;;;18.60;99.90;;;;;;4954945;28;20188;-29
2023/08/10 07:55:40;;;;;;;4.63;3.70;;;18.70;99.90;;;;;;4979461;28;20192;-30
2023/08/10 07:58:06;;;;;;;5.28;4.10;;;18.90;99.90;;;;;;4976513;28;20211;-30
2023/08/10 08:00:33;;;;;;;5.50;3.90;;;19.10;99.90;;;;;;4975642;28;20211;-30
2023/08/10 08:02:59;;;;;;;3.50;3.20;;;19.30;99.90;;;;;;4972745;28;20207;-30
2023/08/10 08:05:25;;;;;;;4.13;3.67;;;19.50;99.90;;;;;;4965476;28;20176;-30
2023/08/10 08:07:51;;;;;;;5.32;4.15;;;19.70;99.90;;;;;;4973379;28;20215;-30
2023/08/10 08:10:17;;;;;;;4.95;4.45;;;19.90;99.90;;;;;;4956423;28;20190;-29
2023/08/10 08:12:43;;;;;;;4.97;3.92;;;20.00;99.90;;;;;;4956167;28;20193;-30
2023/08/10 08:15:09;;;;;;;4.38;3.72;;;20.10;99.90;;;;;;4956096;28;20187;-29
2023/08/10 08:18:13;;;;;;;3.17;2.88;;;20.20;99.90;;;;;;4958122;28;20216;-30
2023/08/10 08:20:38;;;;;;;3.85;3.42;;;20.30;99.90;;;;;;4960030;28;20218;-29
2023/08/10 08:23:04;;;;;;;5.20;3.85;;;20.50;99.90;;;;;;4960061;28;20176;-29
2023/08/10 08:25:30;;;;;;;3.97;3.67;;;20.50;99.90;;;;;;4964222;28;20311;-29
2023/08/10 08:27:58;;;;;;;4.32;3.58;;;20.60;99.90;;;;;;4977695;28;20270;-30
2023/08/10 08:30:26;;;;;;;3.95;3.58;;;20.60;99.90;;;;;;4957771;28;20187;-29
2023/08/10 08:32:52;;;;;;;5.03;3.30;;;20.70;99.90;;;;;;4980531;28;20204;-30
2023/08/10 08:35:18;;;;;;;7.47;4.35;;;20.70;99.90;;;;;;4990650;28;20227;-29
2023/08/10 08:37:45;;;;;;;4.72;3.35;;;20.70;99.90;;;;;;4965974;28;20234;-29
2023/08/10 08:40:11;;;;;;;4.50;3.60;;;20.80;99.90;;;;;;4982942;28;20207;-29
2023/08/10 08:42:38;;;;;;;4.45;3.60;;;21.10;99.90;;;;;;4963406;28;20189;-29
2023/08/10 08:45:05;;;;;;;4.25;3.85;;;21.30;99.90;;;;;;4959873;28;20218;-29
2023/08/10 08:47:32;;;;;;;3.53;3.17;;;21.40;99.90;;;;;;4953500;28;20299;-30
2023/08/10 08:50:00;;;;;;;3.20;2.90;;;21.70;99.90;;;;;;4961202;28;20182;-30
2023/08/10 08:52:29;;;;;;;2.88;2.67;;;21.90;99.90;;;;;;4959829;28;20191;-30
2023/08/10 08:55:00;;;;;;;3.90;3.30;;;22.10;99.90;;;;;;4978029;28;20188;-29
2023/08/10 08:57:28;;;;;;;4.55;3.30;;;22.40;99.90;;;;;;4971086;28;20215;-29
2023/08/10 08:59:56;;;;;;;3.95;2.88;;;22.60;99.90;;;;;;4989707;28;20235;-29
2023/08/10 09:02:24;;;;;;;3.28;2.97;;;22.50;99.90;;;;;;4964445;28;20184;-30
2023/08/10 09:04:59;;;;;;;5.32;3.00;;;22.50;99.90;;;;;;4978671;28;20279;-29
2023/08/10 09:07:29;;;;;;;3.20;2.90;;;22.50;99.90;;;;;;4953281;28;20290;-29
2023/08/10 09:09:57;;;;;;;3.67;2.78;;;22.70;99.90;;;;;;4964846;28;20191;-29
2023/08/10 09:12:37;;;;;;;3.47;2.55;;;22.90;99.90;;;;;;4994123;28;20206;-29
2023/08/10 09:15:14;;;;;;;3.35;2.80;;;23.10;99.90;;;;;;4966421;28;20187;-29
2023/08/10 09:17:51;;;;;;;4.38;2.60;;;23.00;99.90;;;;;;4977144;28;20281;-29
2023/08/10 09:20:31;;;;;;;2.60;2.40;;;23.20;99.90;;;;;;4994699;28;20219;-30
2023/08/10 09:23:01;;;;;;;2.95;2.35;;;23.30;99.90;;;;;;4997020;28;20183;-29
2023/08/10 09:25:38;;;;;;;3.28;2.33;;;23.40;99.90;;;;;;4979472;28;20275;-30
2023/08/10 09:28:10;;;;;;;2.47;2.20;;;23.70;99.90;;;;;;4981702;28;20210;-30
2023/08/10 09:30:41;;;;;;;3.00;2.30;;;23.90;99.90;;;;;;4955938;28;20214;-30
2023/08/10 09:33:35;;;;;;;2.40;2.00;;;24.00;99.90;;;;;;4979983;28;20189;-29
2023/08/10 09:36:05;;;;;;;2.63;2.42;;;24.20;99.90;;;;;;4979920;28;20245;-29
2023/08/10 09:38:33;;;;;;;2.60;2.20;;;23.90;99.90;;;;;;4963580;28;20206;-31
2023/08/10 09:41:11;;;;;;;2.95;2.35;;;24.10;99.90;;;;;;4978207;28;20222;-29
2023/08/10 09:43:43;;;;;;;2.60;2.10;;;24.20;99.90;;;;;;4974765;28;20244;-31
2023/08/10 09:46:17;;;;;;;4.25;2.60;;;24.50;99.90;;;;;;4969776;28;20242;-31
2023/08/10 09:48:56;;;;;;;2.88;2.33;;;24.60;99.90;;;;;;4988571;28;20218;-31
2023/08/10 09:51:22;;;;;;;3.08;2.50;;;24.70;99.90;;;;;;4985073;28;20646;-30
2023/08/10 09:53:52;;;;;;;3.25;2.95;;;24.80;99.90;;;;;;4949118;28;20184;-30
2023/08/10 09:56:21;;;;;;;3.90;3.47;;;24.60;99.90;;;;;;4982064;28;20179;-29
2023/08/10 09:58:49;;;;;;;3.03;2.72;;;24.50;99.90;;;;;;4968799;28;20224;-31
2023/08/10 10:01:21;;;;;;;2.85;2.47;;;24.60;99.90;;;;;;4977932;28;20254;-32
2023/08/10 10:03:52;;;;;;;2.50;2.30;;;24.80;99.90;;;;;;4981067;28;20207;-29
2023/08/10 10:06:19;;;;;;;3.70;2.60;;;25.00;99.90;;;;;;4979599;28;20199;-30
2023/08/10 10:08:59;;;;;;;2.72;2.38;;;25.20;99.90;;;;;;4980275;28;20206;-30
2023/08/10 10:11:30;;;;;;;2.53;2.33;;;25.40;99.90;;;;;;4984484;28;20183;-30
2023/08/10 10:14:00;;;;;;;2.42;2.20;;;25.60;99.90;;;;;;4996240;28;20187;-30
2023/08/10 10:16:31;;;;;;;2.67;2.40;;;25.70;99.90;;;;;;4992083;28;20211;-29
2023/08/10 10:18:59;;;;;;;2.83;2.50;;;25.60;99.90;;;;;;4959250;28;20275;-30
2023/08/10 10:21:25;;;;;;;2.80;2.60;;;25.70;99.90;;;;;;4980992;28;20176;-30
2023/08/10 10:23:55;;;;;;;2.45;2.20;;;25.60;99.90;;;;;;4958338;28;20665;-29
2023/08/10 10:26:20;;;;;;;2.30;2.10;;;25.80;99.90;;;;;;4985188;28;20184;-29
2023/08/10 10:29:08;;;;;;;3.22;2.33;;;26.00;99.90;;;;;;4989055;28;20265;-30
2023/08/10 10:31:33;;;;;;;2.92;2.63;;;25.80;99.90;;;;;;4989386;28;20200;-30
2023/08/10 10:34:01;;;;;;;2.58;2.38;;;25.70;99.90;;;;;;4979058;28;20192;-30
2023/08/10 10:36:27;;;;;;;3.20;2.10;;;25.70;99.90;;;;;;4976253;28;20183;-30
2023/08/10 10:39:04;;;;;;;2.38;2.17;;;25.90;99.90;;;;;;5010991;28;20277;-30
2023/08/10 10:41:41;;;;;;;2.33;2.13;;;26.00;99.90;;;;;;4977477;28;20378;-30
2023/08/10 10:44:08;;;;;;;2.63;2.40;;;26.20;99.90;;;;;;4947854;28;20181;-31
2023/08/10 10:46:40;;;;;;;2.35;2.15;;;26.20;99.90;;;;;;4973114;28;20194;-30
2023/08/10 10:49:21;;;;;;;3.35;2.65;;;26.20;99.90;;;;;;4979873;28;20949;-30
2023/08/10 10:52:01;;;;;;;2.20;1.95;;;26.20;99.90;;;;;;4966382;28;20187;-30
2023/08/10 10:54:36;;;;;;;3.75;2.35;;;26.10;99.90;;;;;;4984713;28;20198;-31
2023/08/10 10:57:05;;;;;;;2.67;2.47;;;26.20;99.90;;;;;;4981816;28;20197;-30
2023/08/10 10:59:32;;;;;;;2.80;2.17;;;26.40;99.90;;;;;;4986678;28;20199;-31
2023/08/10 11:02:00;;;;;;;2.45;2.25;;;26.60;99.90;;;;;;4969671;28;20175;-30
2023/08/10 11:04:28;;;;;;;2.70;2.50;;;26.60;99.90;;;;;;4984034;28;20171;-30
2023/08/10 11:06:59;;;;;;;2.25;2.08;;;26.70;99.90;;;;;;4984129;28;20188;-30
2023/08/10 11:09:25;;;;;;;4.13;2.50;;;26.90;99.90;;;;;;4986217;28;20179;-30
2023/08/10 11:11:51;;;;;;;2.67;2.30;;;26.80;99.90;;;;;;4975166;28;20262;-31
2023/08/10 11:14:17;;;;;;;3.00;2.70;;;26.80;99.90;;;;;;4978320;28;20195;-29
2023/08/10 11:16:43;;;;;;;2.25;2.08;;;26.90;99.90;;;;;;4976718;28;20184;-31
2023/08/10 11:19:13;;;;;;;2.58;2.38;;;26.90;99.90;;;;;;4995590;28;20195;-31
2023/08/10 11:21:42;;;;;;;2.83;2.63;;;27.10;99.90;;;;;;4972426;28;20231;-30
2023/08/10 11:24:08;;;;;;;3.40;2.83;;;26.80;99.90;;;;;;4995748;28;20265;-30
2023/08/10 11:26:36;;;;;;;2.85;2.55;;;26.60;99.90;;;;;;4998778;28;20183;-29
2023/08/10 11:29:02;;;;;;;2.50;2.30;;;26.50;99.90;;;;;;4964038;28;20290;-30
2023/08/10 11:31:37;;;;;;;2.85;2.50;;;26.60;99.90;;;;;;4988430;28;20180;-30
2023/08/10 11:34:23;;;;;;;2.83;2.55;;;26.80;99.90;;;;;;4983938;28;20197;-30
2023/08/10 11:36:49;;;;;;;2.63;2.42;;;26.80;99.90;;;;;;4998181;28;20192;-32
2023/08/10 11:39:15;;;;;;;2.70;2.50;;;26.80;99.90;;;;;;4977809;28;20212;-30
2023/08/10 11:41:42;;;;;;;2.78;2.50;;;27.00;99.90;;;;;;4964057;28;20187;-30
2023/08/10 11:44:08;;;;;;;2.97;2.67;;;27.00;99.90;;;;;;4984530;28;20183;-29
2023/08/10 11:46:34;;;;;;;3.53;2.45;;;26.90;99.90;;;;;;4969611;28;20239;-30
2023/08/10 11:49:00;;;;;;;3.20;2.75;;;26.90;99.90;;;;;;4961407;28;20206;-30
2023/08/10 11:51:33;;;;;;;3.80;2.60;;;27.00;99.90;;;;;;4967519;28;20184;-30
2023/08/10 11:54:09;;;;;;;2.80;2.60;;;27.00;99.90;;;;;;4961733;28;20172;-30
2023/08/10 11:56:45;;;;;;;3.17;2.30;;;27.00;99.90;;;;;;4967315;28;20203;-30
2023/08/10 11:59:14;;;;;;;2.70;2.38;;;27.30;99.90;;;;;;4983080;28;20171;-31
2023/08/10 12:01:45;;;;;;;3.03;2.63;;;27.40;99.90;;;;;;4959870;28;20183;-31
2023/08/10 12:04:11;;;;;;;2.80;2.60;;;27.50;99.90;;;;;;4978568;28;20233;-30
2023/08/10 12:06:40;;;;;;;2.50;2.30;;;27.40;99.90;;;;;;4975757;28;20221;-31
2023/08/10 12:09:11;;;;;;;3.03;2.72;;;27.70;99.90;;;;;;4964366;28;20184;-31
2023/08/10 12:11:38;;;;;;;3.03;2.22;;;27.80;99.90;;;;;;5000429;28;20219;-31
2023/08/10 12:14:07;;;;;;;2.53;2.33;;;28.00;99.90;;;;;;4994699;28;20180;-31
2023/08/10 12:16:32;;;;;;;4.00;2.65;;;28.00;99.90;;;;;;4995146;28;20649;-31
2023/08/10 12:18:58;;;;;;;2.63;2.42;;;27.90;99.90;;;;;;4973827;28;20222;-30
2023/08/10 12:21:24;;;;;;;2.83;2.50;;;27.60;99.90;;;;;;4972786;28;20182;-31
2023/08/10 12:23:50;;;;;;;3.10;2.80;;;27.60;99.90;;;;;;4959368;28;20652;-31
2023/08/10 12:26:16;;;;;;;2.50;2.30;;;27.90;99.90;;;;;;5011896;28;20183;-30
2023/08/10 12:28:42;;;;;;;3.05;2.30;;;28.30;99.90;;;;;;4994340;28;20195;-31
2023/08/10 12:31:08;;;;;;;3.03;2.20;;;28.20;99.90;;;;;;4978087;28;20713;-30
2023/08/10 12:33:35;;;;;;;3.13;2.22;;;27.90;99.90;;;;;;4979067;28;20250;-30
2023/08/10 12:36:02;;;;;;;2.85;2.28;;;27.90;99.90;;;;;;4995170;28;20262;-30
2023/08/10 12:38:28;;;;;;;2.50;2.30;;;27.60;99.90;;;;;;4994362;28;20199;-31
2023/08/10 12:40:54;;;;;;;2.50;2.30;;;27.90;99.90;;;;;;4978940;28;20708;-30
2023/08/10 12:43:21;;;;;;;2.63;2.42;;;28.10;99.90;;;;;;4995138;28;20183;-31
2023/08/10 12:45:47;;;;;;;2.63;2.30;;;28.20;99.90;;;;;;4995070;28;20187;-30
2023/08/10 12:48:12;;;;;;;2.70;2.20;;;28.20;99.90;;;;;;4991117;28;20249;-31
2023/08/10 12:50:38;;;;;;;4.25;2.53;;;28.10;99.90;;;;;;4983976;28;20233;-30
2023/08/10 12:53:04;;;;;;;2.67;2.40;;;28.30;99.90;;;;;;4958778;28;20193;-31